| time (UTC) | temp C | wind direction | speed KPH | gust KPH | rain 1hr cm | rain 24hr cm | rain mn cm | humidity % | barometer mb |
| 20260507224030 | 11 | 139 | 3.2 | 19.3 | 0.00 | 0.00 | 0.00 | 71 | 1017.8 |
| 20260507223029 | 11 | 135 | 3.2 | 19.3 | 0.00 | 0.00 | 0.00 | 70 | 1017.9 |
| 20260507222030 | 12 | 89 | 6.4 | 20.9 | 0.00 | 0.00 | 0.00 | 69 | 1017.9 |
| 20260507221030 | 12 | 126 | 3.2 | 20.9 | 0.00 | 0.00 | 0.00 | 69 | 1017.8 |
| 20260507220029 | 12 | 93 | 9.7 | 20.9 | 0.00 | 0.00 | 0.00 | 69 | 1017.8 |
| 20260507215030 | 12 | 110 | 4.8 | 17.7 | 0.00 | 0.00 | 0.00 | 68 | 1017.8 |
| 20260507214029 | 12 | 107 | 6.4 | 16.1 | 0.00 | 0.00 | 0.00 | 68 | 1017.8 |
| 20260507213030 | 12 | 183 | 1.6 | 16.1 | 0.00 | 0.00 | 0.00 | 68 | 1017.8 |
| 20260507212030 | 12 | 132 | 4.8 | 19.3 | 0.00 | 0.00 | 0.00 | 68 | 1017.7 |
| 20260507211030 | 13 | 132 | 4.8 | 20.9 | 0.00 | 0.00 | 0.00 | 69 | 1017.7 |
| 20260507210029 | 13 | 124 | 3.2 | 20.9 | 0.00 | 0.00 | 0.00 | 70 | 1017.7 |
| 20260507205030 | 13 | 101 | 8.0 | 17.7 | 0.00 | 0.00 | 0.00 | 70 | 1017.7 |
| 20260507204029 | 12 | 107 | 8.0 | 16.1 | 0.00 | 0.00 | 0.00 | 70 | 1017.6 |
| 20260507203030 | 12 | 87 | 8.0 | 14.5 | 0.00 | 0.00 | 0.00 | 69 | 1017.5 |
| 20260507202029 | 12 | 80 | 9.7 | 16.1 | 0.00 | 0.00 | 0.00 | 69 | 1017.5 |
| 20260507201030 | 13 | 78 | 8.0 | 14.5 | 0.00 | 0.00 | 0.00 | 69 | 1017.2 |
| 20260507200029 | 13 | 69 | 8.0 | 19.3 | 0.00 | 0.00 | 0.00 | 68 | 1017.1 |
| 20260507195030 | 13 | 59 | 8.0 | 16.1 | 0.00 | 0.00 | 0.00 | 68 | 1017.1 |
| 20260507194029 | 13 | 66 | 8.0 | 14.5 | 0.00 | 0.00 | 0.00 | 67 | 1017.0 |
| 20260507193030 | 13 | 52 | 9.7 | 16.1 | 0.00 | 0.00 | 0.00 | 66 | 1016.9 |
| 20260507192030 | 13 | 45 | 9.7 | 17.7 | 0.00 | 0.00 | 0.00 | 66 | 1016.8 |
| 20260507191029 | 13 | 37 | 12.9 | 19.3 | 0.00 | 0.00 | 0.00 | 64 | 1016.8 |
| 20260507190029 | 13 | 45 | 12.9 | 19.3 | 0.00 | 0.00 | 0.00 | 62 | 1016.7 |
| 20260507185030 | 14 | 38 | 12.9 | 19.3 | 0.00 | 0.00 | 0.00 | 61 | 1016.6 |
| 20260507184030 | 14 | 43 | 12.9 | 19.3 | 0.00 | 0.00 | 0.00 | 61 | 1016.5 |
| 20260507183029 | 14 | 47 | 12.9 | 22.5 | 0.00 | 0.00 | 0.00 | 62 | 1016.4 |
| 20260507182030 | 14 | 36 | 9.7 | 17.7 | 0.00 | 0.00 | 0.00 | 66 | 1016.4 |
| 20260507181029 | 14 | 33 | 12.9 | 24.1 | 0.00 | 0.00 | 0.00 | 65 | 1016.3 |
| 20260507180030 | 14 | 38 | 9.7 | 20.9 | 0.00 | 0.00 | 0.00 | 65 | 1016.3 |
| 20260507175029 | 15 | 23 | 9.7 | 19.3 | 0.00 | 0.00 | 0.00 | 62 | 1016.3 |
| 20260507174030 | 15 | 28 | 12.9 | 22.5 | 0.00 | 0.00 | 0.00 | 60 | 1016.3 |
| 20260507173030 | 15 | 23 | 11.3 | 19.3 | 0.00 | 0.00 | 0.00 | 58 | 1016.1 |
| 20260507172029 | 15 | 357 | 11.3 | 20.9 | 0.00 | 0.00 | 0.00 | 59 | 1016.1 |
| 20260507171030 | 15 | 20 | 11.3 | 17.7 | 0.00 | 0.00 | 0.00 | 58 | 1016.3 |
| 20260507170029 | 15 | 353 | 14.5 | 20.9 | 0.00 | 0.00 | 0.00 | 59 | 1016.2 |
| 20260507165029 | 15 | 352 | 9.7 | 16.1 | 0.00 | 0.00 | 0.00 | 57 | 1016.1 |
| 20260507164030 | 15 | 344 | 12.9 | 17.7 | 0.00 | 0.00 | 0.00 | 57 | 1016.1 |
| 20260507163030 | 15 | 336 | 11.3 | 16.1 | 0.00 | 0.00 | 0.00 | 57 | 1016.1 |
| 20260507162029 | 15 | 349 | 11.3 | 17.7 | 0.00 | 0.00 | 0.00 | 57 | 1016.1 |
| 20260507161030 | 15 | 15 | 11.3 | 19.3 | 0.00 | 0.00 | 0.00 | 57 | 1016.0 |
| 20260507160029 | 15 | 352 | 9.7 | 19.3 | 0.00 | 0.00 | 0.00 | 57 | 1016.0 |
| 20260507155030 | 15 | 356 | 9.7 | 17.7 | 0.00 | 0.00 | 0.00 | 56 | 1016.0 |
| 20260507154030 | 15 | 348 | 12.9 | 20.9 | 0.00 | 0.00 | 0.00 | 58 | 1016.1 |
| 20260507153030 | 15 | 340 | 14.5 | 19.3 | 0.00 | 0.00 | 0.00 | 57 | 1016.1 |
| 20260507152029 | 15 | 343 | 14.5 | 19.3 | 0.00 | 0.00 | 0.00 | 57 | 1016.1 |
| 20260507151030 | 15 | 335 | 14.5 | 20.9 | 0.00 | 0.00 | 0.00 | 61 | 1016.0 |
| 20260507150030 | 15 | 327 | 17.7 | 24.1 | 0.00 | 0.00 | 0.00 | 58 | 1016.1 |
| 20260507145029 | 15 | 336 | 17.7 | 24.1 | 0.00 | 0.00 | 0.00 | 64 | 1016.0 |
| 20260507144030 | 15 | 327 | 17.7 | 22.5 | 0.00 | 0.00 | 0.00 | 66 | 1016.1 |
| 20260507143029 | 15 | 325 | 19.3 | 24.1 | 0.00 | 0.00 | 0.00 | 69 | 1016.2 |
| 20260507142030 | 15 | 323 | 19.3 | 22.5 | 0.00 | 0.00 | 0.00 | 68 | 1016.0 |
| 20260507141029 | 15 | 324 | 20.9 | 24.1 | 0.00 | 0.00 | 0.00 | 69 | 1016.1 |
| 20260507140030 | 15 | 320 | 20.9 | 25.7 | 0.00 | 0.00 | 0.00 | 70 | 1016.1 |
| 20260507135029 | 15 | 327 | 20.9 | 25.7 | 0.00 | 0.00 | 0.00 | 71 | 1016.1 |
| 20260507134030 | 15 | 324 | 20.9 | 25.7 | 0.00 | 0.00 | 0.00 | 72 | 1016.1 |
| 20260507133030 | 14 | 325 | 20.9 | 25.7 | 0.00 | 0.00 | 0.00 | 73 | 1016.2 |
| 20260507132030 | 14 | 318 | 19.3 | 24.1 | 0.00 | 0.00 | 0.00 | 73 | 1016.1 |
| 20260507131030 | 14 | 327 | 19.3 | 25.7 | 0.00 | 0.00 | 0.00 | 73 | 1016.0 |
| 20260507130030 | 14 | 320 | 19.3 | 24.1 | 0.00 | 0.00 | 0.00 | 74 | 1016.1 |
| 20260507125030 | 14 | 319 | 19.3 | 24.1 | 0.00 | 0.00 | 0.00 | 73 | 1016.1 |
| 20260507124030 | 13 | 317 | 20.9 | 25.7 | 0.00 | 0.00 | 0.00 | 74 | 1016.1 |
| 20260507123030 | 13 | 323 | 20.9 | 25.7 | 0.00 | 0.00 | 0.00 | 74 | 1016.2 |
| 20260507122029 | 13 | 322 | 20.9 | 24.1 | 0.00 | 0.00 | 0.00 | 75 | 1016.1 |
| 20260507121030 | 13 | 323 | 20.9 | 25.7 | 0.00 | 0.00 | 0.00 | 75 | 1016.1 |
| 20260507120030 | 13 | 323 | 19.3 | 22.5 | 0.00 | 0.00 | 0.00 | 74 | 1016.1 |
| 20260507115030 | 13 | 322 | 17.7 | 22.5 | 0.00 | 0.00 | 0.00 | 75 | 1016.1 |
| 20260507114029 | 12 | 329 | 17.7 | 24.1 | 0.00 | 0.00 | 0.00 | 75 | 1016.1 |
| 20260507113030 | 12 | 323 | 17.7 | 22.5 | 0.00 | 0.00 | 0.00 | 75 | 1016.1 |
| 20260507112029 | 12 | 324 | 19.3 | 22.5 | 0.00 | 0.00 | 0.00 | 76 | 1016.1 |
| 20260507111029 | 12 | 321 | 17.7 | 22.5 | 0.00 | 0.00 | 0.00 | 76 | 1016.1 |
| 20260507110030 | 12 | 320 | 17.7 | 22.5 | 0.00 | 0.00 | 0.00 | 74 | 1016.2 |
| 20260507105029 | 12 | 334 | 16.1 | 19.3 | 0.00 | 0.00 | 0.00 | 72 | 1016.1 |
| 20260507104030 | 12 | 339 | 14.5 | 19.3 | 0.00 | 0.00 | 0.00 | 72 | 1016.2 |
| 20260507103030 | 12 | 324 | 14.5 | 19.3 | 0.00 | 0.00 | 0.00 | 74 | 1016.3 |
| 20260507102031 | 11 | 320 | 14.5 | 19.3 | 0.00 | 0.00 | 0.00 | 75 | 1016.2 |
| 20260507101029 | 11 | 328 | 14.5 | 19.3 | 0.00 | 0.00 | 0.00 | 75 | 1016.1 |
| 20260507100030 | 11 | 334 | 14.5 | 19.3 | 0.00 | 0.00 | 0.00 | 75 | 1016.1 |
| 20260507095029 | 11 | 331 | 14.5 | 17.7 | 0.00 | 0.00 | 0.00 | 76 | 1016.0 |
| 20260507094030 | 11 | 337 | 12.9 | 19.3 | 0.00 | 0.00 | 0.00 | 77 | 1016.0 |
| 20260507093030 | 11 | 332 | 11.3 | 19.3 | 0.00 | 0.00 | 0.00 | 76 | 1015.9 |
| 20260507092029 | 10 | 349 | 9.7 | 17.7 | 0.00 | 0.00 | 0.00 | 77 | 1015.9 |
| 20260507091029 | 10 | 348 | 11.3 | 20.9 | 0.00 | 0.00 | 0.00 | 77 | 1015.9 |
| 20260507090030 | 10 | 343 | 11.3 | 19.3 | 0.00 | 0.00 | 0.00 | 78 | 1015.8 |
| 20260507085029 | 10 | 336 | 12.9 | 17.7 | 0.00 | 0.00 | 0.00 | 78 | 1015.7 |
| 20260507084030 | 10 | 347 | 9.7 | 16.1 | 0.00 | 0.00 | 0.00 | 78 | 1015.7 |
| 20260507083030 | 10 | 338 | 11.3 | 16.1 | 0.00 | 0.00 | 0.00 | 78 | 1015.7 |
| 20260507082029 | 10 | 325 | 11.3 | 17.7 | 0.00 | 0.00 | 0.00 | 78 | 1015.6 |
| 20260507081030 | 10 | 332 | 9.7 | 16.1 | 0.00 | 0.00 | 0.00 | 78 | 1015.6 |
| 20260507080030 | 10 | 348 | 8.0 | 16.1 | 0.00 | 0.00 | 0.00 | 77 | 1015.6 |
| 20260507075030 | 10 | 346 | 9.7 | 16.1 | 0.00 | 0.00 | 0.00 | 76 | 1015.5 |
| 20260507074029 | 10 | 21 | 9.7 | 16.1 | 0.00 | 0.00 | 0.00 | 75 | 1015.4 |
| 20260507073030 | 10 | 22 | 8.0 | 17.7 | 0.00 | 0.00 | 0.00 | 75 | 1015.3 |
| 20260507072029 | 10 | 34 | 11.3 | 19.3 | 0.00 | 0.00 | 0.00 | 75 | 1015.3 |
| 20260507071030 | 10 | 31 | 9.7 | 17.7 | 0.00 | 0.00 | 0.00 | 75 | 1015.2 |
| 20260507070030 | 10 | 33 | 9.7 | 17.7 | 0.00 | 0.00 | 0.00 | 74 | 1015.2 |
| 20260507065029 | 10 | 30 | 9.7 | 19.3 | 0.00 | 0.00 | 0.00 | 74 | 1015.2 |
| 20260507064030 | 10 | 22 | 11.3 | 20.9 | 0.00 | 0.00 | 0.00 | 73 | 1015.1 |
| 20260507063029 | 10 | 37 | 11.3 | 19.3 | 0.00 | 0.00 | 0.00 | 72 | 1015.1 |
| 20260507062030 | 10 | 46 | 11.3 | 20.9 | 0.00 | 0.00 | 0.00 | 71 | 1015.0 |
| 20260507061030 | 10 | 37 | 11.3 | 20.9 | 0.00 | 0.00 | 0.00 | 72 | 1015.0 |
| 20260507060029 | 10 | 41 | 11.3 | 19.3 | 0.00 | 0.00 | 0.00 | 73 | 1015.0 |
| 20260507055030 | 10 | 50 | 11.3 | 19.3 | 0.00 | 0.00 | 0.00 | 74 | 1014.8 |
| 20260507054029 | 10 | 49 | 9.7 | 19.3 | 0.00 | 0.00 | 0.00 | 75 | 1014.8 |
| 20260507053030 | 9 | 62 | 4.8 | 8.0 | 0.00 | 0.00 | 0.00 | 77 | 1014.8 |
| 20260507052030 | 9 | 69 | 4.8 | 9.7 | 0.00 | 0.00 | 0.00 | 78 | 1014.6 |
| 20260507051029 | 9 | 50 | 6.4 | 11.3 | 0.00 | 0.00 | 0.00 | 78 | 1014.6 |
| 20260507050030 | 8 | 40 | 9.7 | 17.7 | 0.00 | 0.00 | 0.00 | 78 | 1014.5 |
| 20260507045029 | 8 | 35 | 11.3 | 17.7 | 0.00 | 0.00 | 0.00 | 79 | 1014.4 |
| 20260507044030 | 8 | 34 | 11.3 | 17.7 | 0.00 | 0.00 | 0.00 | 79 | 1014.4 |
| 20260507043029 | 8 | 37 | 9.7 | 17.7 | 0.00 | 0.00 | 0.00 | 79 | 1014.4 |
| 20260507042030 | 8 | 26 | 9.7 | 19.3 | 0.00 | 0.00 | 0.00 | 80 | 1014.3 |
| 20260507041030 | 8 | 16 | 9.7 | 16.1 | 0.00 | 0.00 | 0.00 | 81 | 1014.1 |
| 20260507040029 | 8 | 22 | 8.0 | 16.1 | 0.00 | 0.00 | 0.00 | 81 | 1014.0 |
| 20260507035030 | 8 | 18 | 9.7 | 17.7 | 0.00 | 0.00 | 0.00 | 82 | 1014.1 |
| 20260507034029 | 8 | 29 | 9.7 | 14.5 | 0.00 | 0.00 | 0.00 | 82 | 1014.0 |
| 20260507033030 | 8 | 44 | 8.0 | 14.5 | 0.00 | 0.00 | 0.00 | 82 | 1014.0 |
| 20260507032030 | 8 | 53 | 6.4 | 8.0 | 0.00 | 0.00 | 0.00 | 81 | 1013.9 |
| 20260507031029 | 8 | 57 | 6.4 | 9.7 | 0.00 | 0.00 | 0.00 | 82 | 1013.9 |
| 20260507030030 | 8 | 73 | 4.8 | 6.4 | 0.00 | 0.00 | 0.00 | 82 | 1013.9 |
| 20260507025029 | 8 | 57 | 3.2 | 6.4 | 0.00 | 0.00 | 0.00 | 82 | 1013.9 |
| 20260507024030 | 8 | 55 | 4.8 | 12.9 | 0.00 | 0.00 | 0.00 | 82 | 1013.8 |
| 20260507023030 | 8 | 44 | 6.4 | 12.9 | 0.00 | 0.00 | 0.00 | 82 | 1013.8 |
| 20260507022029 | 8 | 40 | 6.4 | 11.3 | 0.00 | 0.00 | 0.00 | 81 | 1013.7 |
| 20260507021030 | 8 | 20 | 8.0 | 16.1 | 0.00 | 0.00 | 0.00 | 81 | 1013.7 |
| 20260507020030 | 8 | 33 | 8.0 | 16.1 | 0.00 | 0.00 | 0.00 | 81 | 1013.6 |
| 20260507015030 | 9 | 16 | 8.0 | 16.1 | 0.00 | 0.00 | 0.00 | 80 | 1013.6 |
| 20260507014030 | 9 | 20 | 9.7 | 17.7 | 0.00 | 0.00 | 0.00 | 80 | 1013.5 |
| 20260507013030 | 8 | 20 | 9.7 | 16.1 | 0.00 | 0.00 | 0.00 | 79 | 1013.5 |
| 20260507012029 | 8 | 34 | 6.4 | 14.5 | 0.00 | 0.00 | 0.00 | 78 | 1013.5 |
| 20260507011030 | 8 | 48 | 8.0 | 14.5 | 0.00 | 0.00 | 0.00 | 78 | 1013.4 |
| 20260507010030 | 8 | 33 | 9.7 | 17.7 | 0.00 | 0.00 | 0.00 | 78 | 1013.4 |
| 20260507005029 | 8 | 31 | 8.0 | 14.5 | 0.00 | 0.00 | 0.00 | 79 | 1013.5 |
| 20260507004030 | 8 | 40 | 9.7 | 14.5 | 0.00 | 0.00 | 0.00 | 79 | 1013.4 |
| 20260507003029 | 8 | 37 | 9.7 | 16.1 | 0.00 | 0.00 | 0.00 | 79 | 1013.4 |
| 20260507002030 | 8 | 47 | 9.7 | 17.7 | 0.00 | 0.00 | 0.00 | 79 | 1013.4 |
| 20260507001029 | 8 | 48 | 8.0 | 16.1 | 0.00 | 0.00 | 0.00 | 80 | 1013.3 |
| 20260507000030 | 8 | 54 | 9.7 | 20.9 | 0.00 | 0.00 | 0.00 | 80 | 1013.3 |
| 20260506235030 | 8 | 48 | 11.3 | 20.9 | 0.00 | 0.00 | 0.00 | 80 | 1013.4 |
| 20260506234030 | 8 | 45 | 11.3 | 19.3 | 0.00 | 0.00 | 0.00 | 80 | 1013.4 |
| 20260506233030 | 8 | 40 | 9.7 | 17.7 | 0.00 | 0.00 | 0.00 | 80 | 1013.4 |
| 20260506232030 | 8 | 42 | 6.4 | 9.7 | 0.00 | 0.00 | 0.00 | 80 | 1013.3 |
| 20260506231029 | 8 | 48 | 4.8 | 8.0 | 0.00 | 0.00 | 0.00 | 80 | 1013.3 |
| 20260506230030 | 8 | 56 | 4.8 | 8.0 | 0.00 | 0.00 | 0.00 | 80 | 1013.3 |
| 20260506225029 | 8 | 61 | 4.8 | 12.9 | 0.00 | 0.00 | 0.00 | 79 | 1013.3 |